Monday, December 18, 2017, 5:55 AM EST
Back to Local

KPTW, Pottstown Limerick Airport

Location: Royersford, PA, United States Lat: 40.233
Local Time: 5:55 AM EST (10:55 GMT) Lon: -75.55
Time Zone: US/Eastern Elev: 291 ft

Show me the last for .
Show Decoded

2017-12-18 04:54 METAR KPTW 180954Z AUTO 00000KT 6SM BR OVC007 01/M01 A3013 RMK AO2 SLP205
                 T00111006 =
2017-12-18 03:54 METAR KPTW 180854Z AUTO 00000KT 6SM BR OVC008 02/M01 A3015 RMK AO2 SLP208
                 T00171006 58005 =
2017-12-18 02:54 METAR KPTW 180754Z AUTO 00000KT 6SM BR OVC009 01/M01 A3015 RMK AO2 SLP211
                 T00111011 =
2017-12-18 02:29 METAR KPTW 180729Z AUTO 03003KT 6SM BR BKN009 OVC080 01/M01 A3015 RMK AO2
                 T00111011 =
2017-12-18 02:11 METAR KPTW 180711Z AUTO 04004KT 6SM BR FEW009 OVC080 01/M01 A3015 RMK AO2
                 T00111011 =
2017-12-18 01:54 METAR KPTW 180654Z AUTO 04004KT 6SM BR FEW036 OVC080 01/M01 A3016 RMK AO2 SLP213
                 T00111011 =
2017-12-18 00:54 METAR KPTW 180554Z AUTO 00000KT 7SM SCT034 BKN080 OVC095 01/M02 A3016 RMK AO2
                 SLP214 T00111017 10017 20006 56015 =
2017-12-17 23:54 METAR KPTW 180454Z AUTO 00000KT 7SM OVC085 01/M02 A3017 RMK AO2 SLP217 T00111022
                 400391039 =
2017-12-17 22:54 METAR KPTW 180354Z AUTO 06003KT 7SM OVC075 01/M03 A3019 RMK AO2 SLP224 T00111028
                 =
2017-12-17 21:54 METAR KPTW 180254Z AUTO 00000KT 7SM OVC100 01/M03 A3021 RMK AO2 SLP229 T00111033
                 56014 =
2017-12-17 20:54 METAR KPTW 180154Z AUTO 07004KT 7SM OVC110 01/M03 A3022 RMK AO2 SLP234 T00111033
                 =
2017-12-17 19:54 METAR KPTW 180054Z AUTO 07003KT 7SM BKN120 01/M03 A3023 RMK AO2 SLP237 T00061033
                 =
2017-12-17 18:54 METAR KPTW 172354Z AUTO 07003KT 7SM SCT120 02/M03 A3025 RMK AO2 SLP243 T00171033
                 10039 20011 53010 =
2017-12-17 17:54 METAR KPTW 172254Z AUTO 00000KT 7SM CLR 02/M03 A3024 RMK AO2 SLP240 T00171033 =
2017-12-17 16:54 METAR KPTW 172154Z AUTO 00000KT 8SM CLR 02/M03 A3022 RMK AO2 SLP234 T00171028 =
2017-12-17 15:54 METAR KPTW 172054Z AUTO 00000KT 7SM CLR 03/M03 A3022 RMK AO2 SLP232 T00331033
                 56009 =
2017-12-17 14:54 METAR KPTW 171954Z AUTO 00000KT 7SM SCT110 03/M03 A3022 RMK AO2 SLP234 T00331033
                 =
2017-12-17 13:54 METAR KPTW 171854Z AUTO 00000KT 6SM HZ CLR 03/M03 A3022 RMK AO2 SLP234 T00331033
                 =
2017-12-17 12:54 METAR KPTW 171754Z AUTO 00000KT 6SM HZ CLR 03/M04 A3024 RMK AO2 SLP241 T00281039
                 10028 21039 58015 =
2017-12-17 11:54 METAR KPTW 171654Z AUTO 11003KT 7SM CLR 02/M04 A3027 RMK AO2 SLP249 T00221039 =
2017-12-17 10:54 METAR KPTW 171554Z AUTO 05003KT 7SM CLR 01/M04 A3029 RMK AO2 SLP259 T00111044 =
2017-12-17 09:54 METAR KPTW 171454Z AUTO 07004KT 7SM CLR 00/M04 A3029 RMK AO2 SLP256 T00001044
                 50006 =
2017-12-17 08:54 METAR KPTW 171354Z AUTO 05003KT 5SM BR CLR M01/M03 A3029 RMK AO2 SLP257
                 T10111033 =
2017-12-17 07:54 METAR KPTW 171254Z AUTO 05003KT 4SM BR CLR M04/M05 A3028 RMK AO2 SLP253
                 T10391050 =
2017-12-17 06:54 METAR KPTW 171154Z AUTO 00000KT 6SM BR CLR M03/M04 A3027 RMK AO2 SLP250
                 T10331044 10011 21039 53009 =

Support USWX by starting your Amazon purchase here.